This is the latest recevied weather packets stored in our database for station/object IR3AS. If no packets are shown the sender has not sent any weather packets the latest 10 day(s).
| Time | Temp. | Humidity | Pressure | Rain* | Wind** | Luminosity | Snow |
|---|---|---|---|---|---|---|---|
| 1777741858 | 10.56° C | 50% | 863.6 hPa | 0 mm | - | - | - |
| 1777741560 | 11.11° C | 47% | 863.8 hPa | 0 mm | - | - | - |
| 1777741259 | 12.78° C | 46% | 863.8 hPa | 0 mm | - | - | - |
| 1777740960 | 13.89° C | 45% | 863.7 hPa | 0 mm | - | - | - |
| 1777740659 | 14.44° C | 44% | 863.6 hPa | 0 mm | - | - | - |
| 1777740360 | 15.56° C | 44% | 863.8 hPa | 0 mm | - | - | - |
| 1777740059 | 15.56° C | 44% | 863.9 hPa | 0 mm | - | - | - |
| 1777739759 | 16.67° C | 43% | 863.7 hPa | 0 mm | - | - | - |
| 1777739459 | 16.67° C | 43% | 863.9 hPa | 0 mm | - | - | - |
| 1777739159 | 17.22° C | 42% | 863.7 hPa | 0 mm | - | - | - |
| 1777738860 | 17.78° C | 42% | 863.8 hPa | 0 mm | - | - | - |
| 1777738560 | 18.33° C | 44% | 863.8 hPa | 0 mm | - | - | - |
| 1777738259 | 17.78° C | 45% | 863.8 hPa | 0 mm | - | - | - |
| 1777737960 | 17.78° C | 45% | 863.8 hPa | 0 mm | - | - | - |
| 1777737659 | 17.22° C | 46% | 863.8 hPa | 0 mm | - | - | - |
| 1777737359 | 16.67° C | 46% | 863.9 hPa | 0 mm | - | - | - |
| 1777737059 | 16.11° C | 46% | 864 hPa | 0 mm | - | - | - |
| 1777736759 | 16.11° C | 47% | 864 hPa | 0 mm | - | - | - |
| 1777736459 | 15.56° C | 48% | 864 hPa | 0 mm | - | - | - |
| 1777736159 | 15° C | 49% | 864.1 hPa | 0 mm | - | - | - |
| 1777735859 | 14.44° C | 50% | 864.1 hPa | 0 mm | - | - | - |
| 1777735559 | 13.89° C | 53% | 864.3 hPa | 0 mm | - | - | - |
| 1777735259 | 12.78° C | 53% | 864.3 hPa | 0 mm | - | - | - |
| 1777734959 | 12.22° C | 53% | 864.3 hPa | 0 mm | - | - | - |
| 1777734718 | 12.22° C | 53% | 864 hPa | 0 mm | - | - | - |
* Rain latest hour (hover to see other rain measurements)
** Current wind speed in m/s (hover to see current wind gust speed)